sensor_id;sensor_type;location;lat;lon;timestamp;P1;durP1;ratioP1;P2;durP2;ratioP2
21814;SDS011;11069;48.988;8.450;2023-02-08T00:00:39;23.00;;;20.58;;
21814;SDS011;11069;48.988;8.450;2023-02-08T00:03:05;22.50;;;19.92;;
21814;SDS011;11069;48.988;8.450;2023-02-08T00:05:30;23.77;;;21.17;;
21814;SDS011;11069;48.988;8.450;2023-02-08T00:07:56;22.52;;;20.13;;
21814;SDS011;11069;48.988;8.450;2023-02-08T00:10:22;22.45;;;19.80;;
21814;SDS011;11069;48.988;8.450;2023-02-08T00:12:47;22.52;;;20.13;;
21814;SDS011;11069;48.988;8.450;2023-02-08T00:15:13;24.52;;;20.90;;
21814;SDS011;11069;48.988;8.450;2023-02-08T00:17:39;23.52;;;20.02;;
21814;SDS011;11069;48.988;8.450;2023-02-08T00:20:05;23.65;;;20.83;;
21814;SDS011;11069;48.988;8.450;2023-02-08T00:22:31;24.02;;;21.42;;
21814;SDS011;11069;48.988;8.450;2023-02-08T00:24:57;28.13;;;21.70;;
21814;SDS011;11069;48.988;8.450;2023-02-08T00:27:25;23.95;;;21.27;;
21814;SDS011;11069;48.988;8.450;2023-02-08T00:29:51;28.50;;;22.52;;
21814;SDS011;11069;48.988;8.450;2023-02-08T00:32:17;24.85;;;22.13;;
21814;SDS011;11069;48.988;8.450;2023-02-08T00:34:42;26.40;;;21.77;;
21814;SDS011;11069;48.988;8.450;2023-02-08T00:37:08;25.33;;;22.33;;
21814;SDS011;11069;48.988;8.450;2023-02-08T00:39:34;30.05;;;22.83;;
21814;SDS011;11069;48.988;8.450;2023-02-08T00:41:59;27.02;;;22.75;;
21814;SDS011;11069;48.988;8.450;2023-02-08T00:44:25;23.48;;;20.70;;
21814;SDS011;11069;48.988;8.450;2023-02-08T00:46:50;25.17;;;22.20;;
21814;SDS011;11069;48.988;8.450;2023-02-08T00:49:16;23.92;;;21.33;;
21814;SDS011;11069;48.988;8.450;2023-02-08T00:51:42;24.88;;;21.23;;
21814;SDS011;11069;48.988;8.450;2023-02-08T00:54:11;23.70;;;20.75;;
21814;SDS011;11069;48.988;8.450;2023-02-08T00:56:38;25.40;;;22.00;;
21814;SDS011;11069;48.988;8.450;2023-02-08T00:59:04;25.70;;;21.70;;
21814;SDS011;11069;48.988;8.450;2023-02-08T01:01:29;24.83;;;21.58;;
21814;SDS011;11069;48.988;8.450;2023-02-08T01:03:55;23.67;;;21.17;;
21814;SDS011;11069;48.988;8.450;2023-02-08T01:06:21;25.25;;;22.15;;
21814;SDS011;11069;48.988;8.450;2023-02-08T01:08:46;26.25;;;21.70;;
21814;SDS011;11069;48.988;8.450;2023-02-08T01:11:15;25.42;;;22.13;;
21814;SDS011;11069;48.988;8.450;2023-02-08T01:16:16;24.40;;;21.58;;
21814;SDS011;11069;48.988;8.450;2023-02-08T01:18:45;24.08;;;21.48;;
21814;SDS011;11069;48.988;8.450;2023-02-08T01:21:13;24.38;;;21.73;;
21814;SDS011;11069;48.988;8.450;2023-02-08T01:23:40;24.25;;;21.13;;
21814;SDS011;11069;48.988;8.450;2023-02-08T01:26:07;28.77;;;22.67;;
21814;SDS011;11069;48.988;8.450;2023-02-08T01:28:33;26.95;;;23.00;;
21814;SDS011;11069;48.988;8.450;2023-02-08T01:31:03;30.38;;;24.05;;
21814;SDS011;11069;48.988;8.450;2023-02-08T01:33:33;29.02;;;23.77;;
21814;SDS011;11069;48.988;8.450;2023-02-08T01:35:59;26.55;;;22.92;;
21814;SDS011;11069;48.988;8.450;2023-02-08T01:38:25;25.85;;;23.15;;
21814;SDS011;11069;48.988;8.450;2023-02-08T01:40:50;24.60;;;22.00;;
21814;SDS011;11069;48.988;8.450;2023-02-08T01:43:23;26.05;;;22.70;;
21814;SDS011;11069;48.988;8.450;2023-02-08T01:45:56;26.42;;;23.48;;
21814;SDS011;11069;48.988;8.450;2023-02-08T01:53:32;27.52;;;23.10;;
21814;SDS011;11069;48.988;8.450;2023-02-08T01:56:00;27.98;;;24.17;;
21814;SDS011;11069;48.988;8.450;2023-02-08T01:58:29;26.30;;;23.15;;
21814;SDS011;11069;48.988;8.450;2023-02-08T02:00:58;27.30;;;23.55;;
21814;SDS011;11069;48.988;8.450;2023-02-08T02:03:25;26.90;;;23.30;;
21814;SDS011;11069;48.988;8.450;2023-02-08T02:05:53;28.42;;;23.40;;
21814;SDS011;11069;48.988;8.450;2023-02-08T02:08:24;26.17;;;23.20;;
21814;SDS011;11069;48.988;8.450;2023-02-08T02:10:50;25.70;;;22.90;;
21814;SDS011;11069;48.988;8.450;2023-02-08T02:13:17;26.38;;;23.30;;
21814;SDS011;11069;48.988;8.450;2023-02-08T02:15:46;25.52;;;22.58;;
21814;SDS011;11069;48.988;8.450;2023-02-08T02:18:16;26.23;;;22.88;;
21814;SDS011;11069;48.988;8.450;2023-02-08T02:35:12;27.17;;;23.80;;
21814;SDS011;11069;48.988;8.450;2023-02-08T02:43:33;27.77;;;23.52;;
21814;SDS011;11069;48.988;8.450;2023-02-08T02:52:10;27.67;;;23.30;;
21814;SDS011;11069;48.988;8.450;2023-02-08T02:54:41;28.65;;;24.23;;
21814;SDS011;11069;48.988;8.450;2023-02-08T02:57:16;27.60;;;23.40;;
21814;SDS011;11069;48.988;8.450;2023-02-08T02:59:49;26.13;;;22.90;;
21814;SDS011;11069;48.988;8.450;2023-02-08T03:02:15;28.35;;;23.58;;
21814;SDS011;11069;48.988;8.450;2023-02-08T03:07:10;28.48;;;24.13;;
21814;SDS011;11069;48.988;8.450;2023-02-08T03:15:51;27.65;;;24.10;;
21814;SDS011;11069;48.988;8.450;2023-02-08T03:26:59;28.38;;;24.75;;
21814;SDS011;11069;48.988;8.450;2023-02-08T03:40:44;30.67;;;24.88;;
21814;SDS011;11069;48.988;8.450;2023-02-08T03:43:14;29.77;;;24.65;;
21814;SDS011;11069;48.988;8.450;2023-02-08T03:45:49;29.30;;;25.40;;
21814;SDS011;11069;48.988;8.450;2023-02-08T03:48:24;29.10;;;23.77;;
21814;SDS011;11069;48.988;8.450;2023-02-08T03:50:52;32.08;;;25.27;;
21814;SDS011;11069;48.988;8.450;2023-02-08T03:53:21;30.40;;;24.80;;
21814;SDS011;11069;48.988;8.450;2023-02-08T03:55:50;27.50;;;24.10;;
21814;SDS011;11069;48.988;8.450;2023-02-08T03:58:24;31.58;;;25.80;;
21814;SDS011;11069;48.988;8.450;2023-02-08T04:01:22;27.30;;;24.35;;
21814;SDS011;11069;48.988;8.450;2023-02-08T04:03:53;28.73;;;24.55;;
21814;SDS011;11069;48.988;8.450;2023-02-08T04:06:21;26.60;;;23.67;;
21814;SDS011;11069;48.988;8.450;2023-02-08T04:08:47;29.67;;;24.90;;
21814;SDS011;11069;48.988;8.450;2023-02-08T04:11:14;29.25;;;25.05;;
21814;SDS011;11069;48.988;8.450;2023-02-08T04:13:40;33.03;;;25.05;;
21814;SDS011;11069;48.988;8.450;2023-02-08T04:16:05;30.02;;;24.60;;
21814;SDS011;11069;48.988;8.450;2023-02-08T04:18:31;27.67;;;23.92;;
21814;SDS011;11069;48.988;8.450;2023-02-08T04:20:57;27.83;;;24.83;;
21814;SDS011;11069;48.988;8.450;2023-02-08T04:23:22;27.50;;;23.98;;
21814;SDS011;11069;48.988;8.450;2023-02-08T04:25:48;28.92;;;24.90;;
21814;SDS011;11069;48.988;8.450;2023-02-08T04:28:13;28.95;;;24.75;;
21814;SDS011;11069;48.988;8.450;2023-02-08T04:30:39;28.48;;;24.08;;
21814;SDS011;11069;48.988;8.450;2023-02-08T04:33:04;28.33;;;24.77;;
21814;SDS011;11069;48.988;8.450;2023-02-08T04:35:30;29.33;;;25.10;;
21814;SDS011;11069;48.988;8.450;2023-02-08T04:37:56;30.23;;;26.23;;
21814;SDS011;11069;48.988;8.450;2023-02-08T04:40:21;29.58;;;25.23;;
21814;SDS011;11069;48.988;8.450;2023-02-08T04:42:47;27.60;;;24.52;;
21814;SDS011;11069;48.988;8.450;2023-02-08T04:45:12;29.52;;;25.65;;
21814;SDS011;11069;48.988;8.450;2023-02-08T04:47:38;31.50;;;25.77;;
21814;SDS011;11069;48.988;8.450;2023-02-08T04:50:03;28.77;;;24.55;;
21814;SDS011;11069;48.988;8.450;2023-02-08T04:52:29;27.90;;;24.85;;
21814;SDS011;11069;48.988;8.450;2023-02-08T04:54:55;28.05;;;24.92;;
21814;SDS011;11069;48.988;8.450;2023-02-08T04:57:20;31.52;;;25.17;;
21814;SDS011;11069;48.988;8.450;2023-02-08T04:59:46;28.70;;;25.63;;
21814;SDS011;11069;48.988;8.450;2023-02-08T05:02:11;32.10;;;26.30;;
21814;SDS011;11069;48.988;8.450;2023-02-08T05:04:37;27.10;;;24.20;;
21814;SDS011;11069;48.988;8.450;2023-02-08T05:07:03;29.52;;;26.13;;
21814;SDS011;11069;48.988;8.450;2023-02-08T05:09:29;28.55;;;25.10;;
21814;SDS011;11069;48.988;8.450;2023-02-08T05:11:55;31.98;;;26.02;;
21814;SDS011;11069;48.988;8.450;2023-02-08T05:14:20;29.67;;;25.67;;
21814;SDS011;11069;48.988;8.450;2023-02-08T05:16:47;28.60;;;25.15;;
21814;SDS011;11069;48.988;8.450;2023-02-08T05:19:12;29.38;;;24.95;;
21814;SDS011;11069;48.988;8.450;2023-02-08T05:21:38;31.45;;;26.77;;
21814;SDS011;11069;48.988;8.450;2023-02-08T05:24:03;30.27;;;25.58;;
21814;SDS011;11069;48.988;8.450;2023-02-08T05:26:29;29.23;;;25.42;;
21814;SDS011;11069;48.988;8.450;2023-02-08T05:28:55;29.73;;;26.13;;
21814;SDS011;11069;48.988;8.450;2023-02-08T05:31:21;31.17;;;26.13;;
21814;SDS011;11069;48.988;8.450;2023-02-08T05:33:49;30.55;;;25.45;;
21814;SDS011;11069;48.988;8.450;2023-02-08T05:36:16;33.35;;;26.63;;
21814;SDS011;11069;48.988;8.450;2023-02-08T05:38:42;32.53;;;25.60;;
21814;SDS011;11069;48.988;8.450;2023-02-08T05:41:08;32.65;;;27.02;;
21814;SDS011;11069;48.988;8.450;2023-02-08T05:43:33;32.75;;;25.98;;
21814;SDS011;11069;48.988;8.450;2023-02-08T05:46:00;31.40;;;26.98;;
21814;SDS011;11069;48.988;8.450;2023-02-08T05:48:25;31.30;;;26.38;;
21814;SDS011;11069;48.988;8.450;2023-02-08T05:50:51;29.50;;;25.73;;
21814;SDS011;11069;48.988;8.450;2023-02-08T05:53:17;32.70;;;27.15;;
21814;SDS011;11069;48.988;8.450;2023-02-08T05:55:43;30.10;;;26.10;;
21814;SDS011;11069;48.988;8.450;2023-02-08T05:58:10;29.50;;;26.30;;
21814;SDS011;11069;48.988;8.450;2023-02-08T06:00:36;35.85;;;28.42;;
21814;SDS011;11069;48.988;8.450;2023-02-08T06:03:01;29.40;;;25.95;;
21814;SDS011;11069;48.988;8.450;2023-02-08T06:05:27;30.67;;;26.73;;
21814;SDS011;11069;48.988;8.450;2023-02-08T06:07:52;30.95;;;26.63;;
21814;SDS011;11069;48.988;8.450;2023-02-08T06:10:18;33.42;;;26.90;;
21814;SDS011;11069;48.988;8.450;2023-02-08T06:12:43;29.67;;;26.48;;
21814;SDS011;11069;48.988;8.450;2023-02-08T06:15:09;32.42;;;27.55;;
21814;SDS011;11069;48.988;8.450;2023-02-08T06:17:35;31.63;;;27.08;;
21814;SDS011;11069;48.988;8.450;2023-02-08T06:20:00;30.67;;;26.95;;
21814;SDS011;11069;48.988;8.450;2023-02-08T06:22:26;30.92;;;26.60;;
21814;SDS011;11069;48.988;8.450;2023-02-08T06:24:51;34.50;;;26.90;;
21814;SDS011;11069;48.988;8.450;2023-02-08T06:27:17;32.28;;;27.58;;
21814;SDS011;11069;48.988;8.450;2023-02-08T06:29:43;30.35;;;26.83;;
21814;SDS011;11069;48.988;8.450;2023-02-08T06:32:08;32.53;;;28.38;;
21814;SDS011;11069;48.988;8.450;2023-02-08T06:34:34;34.08;;;27.58;;
21814;SDS011;11069;48.988;8.450;2023-02-08T06:36:59;35.33;;;28.45;;
21814;SDS011;11069;48.988;8.450;2023-02-08T06:39:26;30.50;;;26.67;;
21814;SDS011;11069;48.988;8.450;2023-02-08T06:41:52;32.75;;;28.25;;
21814;SDS011;11069;48.988;8.450;2023-02-08T06:44:18;33.47;;;28.67;;
21814;SDS011;11069;48.988;8.450;2023-02-08T06:46:43;32.33;;;27.95;;
21814;SDS011;11069;48.988;8.450;2023-02-08T06:49:09;31.15;;;27.38;;
21814;SDS011;11069;48.988;8.450;2023-02-08T06:51:35;32.90;;;27.67;;
21814;SDS011;11069;48.988;8.450;2023-02-08T06:54:01;32.55;;;28.40;;
21814;SDS011;11069;48.988;8.450;2023-02-08T06:56:26;35.13;;;27.73;;
21814;SDS011;11069;48.988;8.450;2023-02-08T06:58:52;32.83;;;27.60;;
21814;SDS011;11069;48.988;8.450;2023-02-08T07:01:17;33.92;;;28.35;;
21814;SDS011;11069;48.988;8.450;2023-02-08T07:03:43;37.00;;;28.73;;
21814;SDS011;11069;48.988;8.450;2023-02-08T07:06:12;32.22;;;26.75;;
21814;SDS011;11069;48.988;8.450;2023-02-08T07:08:38;31.73;;;26.43;;
21814;SDS011;11069;48.988;8.450;2023-02-08T07:11:05;31.92;;;27.73;;
21814;SDS011;11069;48.988;8.450;2023-02-08T07:13:35;30.45;;;27.15;;
21814;SDS011;11069;48.988;8.450;2023-02-08T07:16:01;37.58;;;29.35;;
21814;SDS011;11069;48.988;8.450;2023-02-08T07:18:31;36.17;;;28.83;;
21814;SDS011;11069;48.988;8.450;2023-02-08T07:20:57;32.80;;;27.35;;
21814;SDS011;11069;48.988;8.450;2023-02-08T07:23:25;32.58;;;27.40;;
21814;SDS011;11069;48.988;8.450;2023-02-08T07:26:01;32.08;;;26.95;;
21814;SDS011;11069;48.988;8.450;2023-02-08T07:28:29;31.10;;;26.58;;
21814;SDS011;11069;48.988;8.450;2023-02-08T07:30:55;28.95;;;24.83;;
21814;SDS011;11069;48.988;8.450;2023-02-08T07:33:21;29.77;;;24.38;;
21814;SDS011;11069;48.988;8.450;2023-02-08T07:35:47;29.90;;;24.67;;
21814;SDS011;11069;48.988;8.450;2023-02-08T07:38:12;27.52;;;23.20;;
21814;SDS011;11069;48.988;8.450;2023-02-08T07:40:38;26.52;;;23.25;;
21814;SDS011;11069;48.988;8.450;2023-02-08T07:43:04;26.45;;;23.00;;
21814;SDS011;11069;48.988;8.450;2023-02-08T07:45:30;27.35;;;22.52;;
21814;SDS011;11069;48.988;8.450;2023-02-08T07:47:55;25.48;;;21.48;;
21814;SDS011;11069;48.988;8.450;2023-02-08T07:50:21;27.95;;;21.92;;
21814;SDS011;11069;48.988;8.450;2023-02-08T07:52:47;31.08;;;22.65;;
21814;SDS011;11069;48.988;8.450;2023-02-08T07:55:13;26.30;;;22.70;;
21814;SDS011;11069;48.988;8.450;2023-02-08T07:57:43;25.70;;;21.92;;
21814;SDS011;11069;48.988;8.450;2023-02-08T08:00:09;26.15;;;21.20;;
21814;SDS011;11069;48.988;8.450;2023-02-08T08:02:35;25.88;;;22.05;;
21814;SDS011;11069;48.988;8.450;2023-02-08T08:05:01;24.30;;;20.73;;
21814;SDS011;11069;48.988;8.450;2023-02-08T08:07:27;24.50;;;21.13;;
21814;SDS011;11069;48.988;8.450;2023-02-08T08:09:52;25.23;;;20.75;;
21814;SDS011;11069;48.988;8.450;2023-02-08T08:12:18;25.38;;;20.20;;
21814;SDS011;11069;48.988;8.450;2023-02-08T08:14:43;22.27;;;18.77;;
21814;SDS011;11069;48.988;8.450;2023-02-08T08:17:09;25.67;;;20.42;;
21814;SDS011;11069;48.988;8.450;2023-02-08T08:19:35;23.83;;;19.60;;
21814;SDS011;11069;48.988;8.450;2023-02-08T08:22:00;24.80;;;19.83;;
21814;SDS011;11069;48.988;8.450;2023-02-08T08:24:26;22.73;;;20.15;;
21814;SDS011;11069;48.988;8.450;2023-02-08T08:26:51;23.67;;;19.48;;
21814;SDS011;11069;48.988;8.450;2023-02-08T08:29:17;25.20;;;19.63;;
21814;SDS011;11069;48.988;8.450;2023-02-08T08:31:43;26.60;;;19.83;;
21814;SDS011;11069;48.988;8.450;2023-02-08T08:34:08;21.60;;;18.90;;
21814;SDS011;11069;48.988;8.450;2023-02-08T08:36:34;23.55;;;19.20;;
21814;SDS011;11069;48.988;8.450;2023-02-08T08:39:00;26.70;;;20.27;;
21814;SDS011;11069;48.988;8.450;2023-02-08T08:41:25;23.75;;;19.67;;
21814;SDS011;11069;48.988;8.450;2023-02-08T08:43:52;23.63;;;19.20;;
21814;SDS011;11069;48.988;8.450;2023-02-08T08:46:18;22.38;;;18.40;;
21814;SDS011;11069;48.988;8.450;2023-02-08T08:48:44;21.83;;;19.38;;
21814;SDS011;11069;48.988;8.450;2023-02-08T08:51:10;22.73;;;19.20;;
21814;SDS011;11069;48.988;8.450;2023-02-08T08:53:36;20.80;;;17.70;;
21814;SDS011;11069;48.988;8.450;2023-02-08T08:56:02;22.83;;;18.75;;
21814;SDS011;11069;48.988;8.450;2023-02-08T08:58:28;21.48;;;18.38;;
21814;SDS011;11069;48.988;8.450;2023-02-08T09:00:57;20.67;;;18.27;;
21814;SDS011;11069;48.988;8.450;2023-02-08T09:03:24;22.13;;;17.92;;
21814;SDS011;11069;48.988;8.450;2023-02-08T09:05:51;23.65;;;18.90;;
21814;SDS011;11069;48.988;8.450;2023-02-08T09:08:16;20.65;;;17.73;;
21814;SDS011;11069;48.988;8.450;2023-02-08T09:10:42;21.85;;;18.50;;
21814;SDS011;11069;48.988;8.450;2023-02-08T09:13:08;21.80;;;18.27;;
21814;SDS011;11069;48.988;8.450;2023-02-08T09:15:37;20.23;;;17.00;;
21814;SDS011;11069;48.988;8.450;2023-02-08T09:18:04;19.80;;;17.17;;
21814;SDS011;11069;48.988;8.450;2023-02-08T09:20:29;20.10;;;17.15;;
21814;SDS011;11069;48.988;8.450;2023-02-08T09:22:55;22.52;;;17.60;;
21814;SDS011;11069;48.988;8.450;2023-02-08T09:25:21;22.33;;;17.08;;
21814;SDS011;11069;48.988;8.450;2023-02-08T09:27:46;19.45;;;16.67;;
21814;SDS011;11069;48.988;8.450;2023-02-08T09:30:12;18.77;;;16.40;;
21814;SDS011;11069;48.988;8.450;2023-02-08T09:32:38;21.63;;;16.67;;
21814;SDS011;11069;48.988;8.450;2023-02-08T09:35:04;19.67;;;16.90;;
21814;SDS011;11069;48.988;8.450;2023-02-08T09:37:30;18.63;;;16.42;;
21814;SDS011;11069;48.988;8.450;2023-02-08T09:39:56;18.58;;;15.77;;
21814;SDS011;11069;48.988;8.450;2023-02-08T09:47:34;19.05;;;15.60;;
21814;SDS011;11069;48.988;8.450;2023-02-08T09:50:23;18.85;;;16.13;;
21814;SDS011;11069;48.988;8.450;2023-02-08T09:53:07;17.65;;;15.07;;
21814;SDS011;11069;48.988;8.450;2023-02-08T09:55:49;18.90;;;14.73;;
21814;SDS011;11069;48.988;8.450;2023-02-08T10:00:46;16.90;;;14.63;;
21814;SDS011;11069;48.988;8.450;2023-02-08T10:03:20;14.50;;;12.77;;
21814;SDS011;11069;48.988;8.450;2023-02-08T10:06:03;15.70;;;13.40;;
21814;SDS011;11069;48.988;8.450;2023-02-08T10:08:30;15.15;;;13.45;;
21814;SDS011;11069;48.988;8.450;2023-02-08T10:16:39;17.02;;;13.02;;
21814;SDS011;11069;48.988;8.450;2023-02-08T10:32:59;16.27;;;12.80;;
21814;SDS011;11069;48.988;8.450;2023-02-08T10:35:40;19.02;;;12.90;;
21814;SDS011;11069;48.988;8.450;2023-02-08T10:40:57;15.52;;;13.02;;
21814;SDS011;11069;48.988;8.450;2023-02-08T10:43:31;14.70;;;12.88;;
21814;SDS011;11069;48.988;8.450;2023-02-08T10:46:07;17.88;;;13.55;;
21814;SDS011;11069;48.988;8.450;2023-02-08T10:48:41;17.15;;;14.40;;
21814;SDS011;11069;48.988;8.450;2023-02-08T10:51:19;17.92;;;14.30;;
21814;SDS011;11069;48.988;8.450;2023-02-08T10:53:47;16.17;;;13.57;;
21814;SDS011;11069;48.988;8.450;2023-02-08T10:56:35;16.83;;;14.30;;
21814;SDS011;11069;48.988;8.450;2023-02-08T10:59:20;16.48;;;14.25;;
21814;SDS011;11069;48.988;8.450;2023-02-08T11:01:49;17.50;;;13.60;;
21814;SDS011;11069;48.988;8.450;2023-02-08T11:04:16;17.90;;;14.35;;
21814;SDS011;11069;48.988;8.450;2023-02-08T11:06:43;15.10;;;13.48;;
21814;SDS011;11069;48.988;8.450;2023-02-08T11:09:20;20.10;;;14.32;;
21814;SDS011;11069;48.988;8.450;2023-02-08T11:11:50;17.85;;;14.10;;
21814;SDS011;11069;48.988;8.450;2023-02-08T11:14:39;19.40;;;14.18;;
21814;SDS011;11069;48.988;8.450;2023-02-08T11:17:04;16.45;;;13.70;;
21814;SDS011;11069;48.988;8.450;2023-02-08T11:19:46;15.00;;;13.40;;
21814;SDS011;11069;48.988;8.450;2023-02-08T11:22:18;16.73;;;13.57;;
21814;SDS011;11069;48.988;8.450;2023-02-08T11:24:53;17.52;;;14.45;;
21814;SDS011;11069;48.988;8.450;2023-02-08T11:32:45;19.73;;;14.20;;
21814;SDS011;11069;48.988;8.450;2023-02-08T11:35:23;14.80;;;10.88;;
21814;SDS011;11069;48.988;8.450;2023-02-08T11:37:53;16.08;;;13.88;;
21814;SDS011;11069;48.988;8.450;2023-02-08T11:40:28;16.63;;;13.43;;
21814;SDS011;11069;48.988;8.450;2023-02-08T11:43:02;17.77;;;13.63;;
21814;SDS011;11069;48.988;8.450;2023-02-08T11:45:29;16.35;;;13.48;;
21814;SDS011;11069;48.988;8.450;2023-02-08T11:47:57;15.52;;;12.80;;
21814;SDS011;11069;48.988;8.450;2023-02-08T11:50:32;17.73;;;13.48;;
21814;SDS011;11069;48.988;8.450;2023-02-08T11:53:02;15.45;;;13.20;;
21814;SDS011;11069;48.988;8.450;2023-02-08T11:55:41;17.80;;;13.10;;
21814;SDS011;11069;48.988;8.450;2023-02-08T12:00:39;17.52;;;13.05;;
21814;SDS011;11069;48.988;8.450;2023-02-08T12:03:12;15.75;;;13.60;;
21814;SDS011;11069;48.988;8.450;2023-02-08T12:10:48;14.85;;;12.63;;
21814;SDS011;11069;48.988;8.450;2023-02-08T12:16:27;16.38;;;13.52;;
21814;SDS011;11069;48.988;8.450;2023-02-08T12:21:45;15.23;;;13.63;;
21814;SDS011;11069;48.988;8.450;2023-02-08T12:30:02;16.27;;;13.80;;
21814;SDS011;11069;48.988;8.450;2023-02-08T12:41:08;15.75;;;14.05;;
21814;SDS011;11069;48.988;8.450;2023-02-08T12:54:56;16.35;;;13.70;;
21814;SDS011;11069;48.988;8.450;2023-02-08T12:57:27;15.48;;;13.65;;
21814;SDS011;11069;48.988;8.450;2023-02-08T12:59:59;20.17;;;13.43;;
21814;SDS011;11069;48.988;8.450;2023-02-08T13:02:34;17.92;;;13.40;;
21814;SDS011;11069;48.988;8.450;2023-02-08T13:05:10;15.35;;;13.07;;
21814;SDS011;11069;48.988;8.450;2023-02-08T13:07:43;17.13;;;13.57;;
21814;SDS011;11069;48.988;8.450;2023-02-08T13:10:19;17.27;;;13.63;;
21814;SDS011;11069;48.988;8.450;2023-02-08T13:12:50;16.90;;;14.25;;
21814;SDS011;11069;48.988;8.450;2023-02-08T13:15:21;14.70;;;13.18;;
21814;SDS011;11069;48.988;8.450;2023-02-08T13:17:50;16.17;;;13.38;;
21814;SDS011;11069;48.988;8.450;2023-02-08T13:20:39;17.27;;;14.27;;
21814;SDS011;11069;48.988;8.450;2023-02-08T13:23:18;16.45;;;14.10;;
21814;SDS011;11069;48.988;8.450;2023-02-08T13:25:54;20.00;;;14.27;;
21814;SDS011;11069;48.988;8.450;2023-02-08T13:28:24;18.75;;;14.90;;
21814;SDS011;11069;48.988;8.450;2023-02-08T13:33:32;16.88;;;14.57;;
21814;SDS011;11069;48.988;8.450;2023-02-08T13:36:27;19.42;;;14.60;;
21814;SDS011;11069;48.988;8.450;2023-02-08T13:38:57;18.50;;;14.90;;
21814;SDS011;11069;48.988;8.450;2023-02-08T13:41:24;16.65;;;14.45;;
21814;SDS011;11069;48.988;8.450;2023-02-08T13:43:56;16.50;;;14.32;;
21814;SDS011;11069;48.988;8.450;2023-02-08T13:46:36;16.02;;;13.65;;
21814;SDS011;11069;48.988;8.450;2023-02-08T13:55:41;18.10;;;14.55;;
21814;SDS011;11069;48.988;8.450;2023-02-08T14:00:41;16.67;;;13.30;;
21814;SDS011;11069;48.988;8.450;2023-02-08T14:03:25;16.65;;;13.90;;
21814;SDS011;11069;48.988;8.450;2023-02-08T14:05:55;15.77;;;12.75;;
21814;SDS011;11069;48.988;8.450;2023-02-08T14:19:55;15.00;;;13.20;;
21814;SDS011;11069;48.988;8.450;2023-02-08T14:22:23;14.88;;;13.00;;
21814;SDS011;11069;48.988;8.450;2023-02-08T14:25:00;15.50;;;13.00;;
21814;SDS011;11069;48.988;8.450;2023-02-08T14:30:32;14.32;;;11.95;;
21814;SDS011;11069;48.988;8.450;2023-02-08T14:35:29;15.52;;;13.15;;
21814;SDS011;11069;48.988;8.450;2023-02-08T14:41:01;16.38;;;12.32;;
21814;SDS011;11069;48.988;8.450;2023-02-08T14:43:32;17.38;;;12.25;;
21814;SDS011;11069;48.988;8.450;2023-02-08T14:46:40;14.85;;;12.32;;
21814;SDS011;11069;48.988;8.450;2023-02-08T14:49:12;15.05;;;12.60;;
21814;SDS011;11069;48.988;8.450;2023-02-08T14:51:44;15.82;;;12.20;;
21814;SDS011;11069;48.988;8.450;2023-02-08T14:54:31;14.23;;;12.30;;
21814;SDS011;11069;48.988;8.450;2023-02-08T14:57:06;16.88;;;12.88;;
21814;SDS011;11069;48.988;8.450;2023-02-08T14:59:48;14.98;;;12.43;;
21814;SDS011;11069;48.988;8.450;2023-02-08T15:02:18;15.15;;;12.60;;
21814;SDS011;11069;48.988;8.450;2023-02-08T15:04:46;14.13;;;12.60;;
21814;SDS011;11069;48.988;8.450;2023-02-08T15:09:54;16.33;;;12.65;;
21814;SDS011;11069;48.988;8.450;2023-02-08T15:15:05;15.65;;;12.15;;
21814;SDS011;11069;48.988;8.450;2023-02-08T15:17:42;14.02;;;12.30;;
21814;SDS011;11069;48.988;8.450;2023-02-08T15:20:16;14.03;;;11.80;;
21814;SDS011;11069;48.988;8.450;2023-02-08T15:22:58;13.88;;;11.52;;
21814;SDS011;11069;48.988;8.450;2023-02-08T15:25:25;14.15;;;11.35;;
21814;SDS011;11069;48.988;8.450;2023-02-08T15:28:02;14.48;;;11.05;;
21814;SDS011;11069;48.988;8.450;2023-02-08T15:30:42;17.27;;;11.80;;
21814;SDS011;11069;48.988;8.450;2023-02-08T15:33:09;16.35;;;11.98;;
21814;SDS011;11069;48.988;8.450;2023-02-08T15:35:38;11.82;;;9.43;;
21814;SDS011;11069;48.988;8.450;2023-02-08T15:38:10;13.07;;;11.07;;
21814;SDS011;11069;48.988;8.450;2023-02-08T15:40:43;17.02;;;11.68;;
21814;SDS011;11069;48.988;8.450;2023-02-08T15:43:31;15.77;;;11.15;;
21814;SDS011;11069;48.988;8.450;2023-02-08T15:45:59;13.13;;;10.63;;
21814;SDS011;11069;48.988;8.450;2023-02-08T15:48:26;13.60;;;11.13;;
21814;SDS011;11069;48.988;8.450;2023-02-08T15:50:54;13.60;;;11.15;;
21814;SDS011;11069;48.988;8.450;2023-02-08T15:53:20;14.57;;;10.80;;
21814;SDS011;11069;48.988;8.450;2023-02-08T15:55:48;14.68;;;11.27;;
21814;SDS011;11069;48.988;8.450;2023-02-08T16:00:56;13.82;;;10.13;;
21814;SDS011;11069;48.988;8.450;2023-02-08T16:03:23;17.08;;;10.15;;
21814;SDS011;11069;48.988;8.450;2023-02-08T16:05:52;11.38;;;9.73;;
21814;SDS011;11069;48.988;8.450;2023-02-08T16:08:21;17.70;;;10.57;;
21814;SDS011;11069;48.988;8.450;2023-02-08T16:10:59;12.40;;;10.32;;
21814;SDS011;11069;48.988;8.450;2023-02-08T16:13:31;12.57;;;9.57;;
21814;SDS011;11069;48.988;8.450;2023-02-08T16:18:54;11.80;;;9.57;;
21814;SDS011;11069;48.988;8.450;2023-02-08T16:21:33;14.60;;;10.55;;
21814;SDS011;11069;48.988;8.450;2023-02-08T16:24:04;16.05;;;12.02;;
21814;SDS011;11069;48.988;8.450;2023-02-08T16:26:43;13.65;;;10.23;;
21814;SDS011;11069;48.988;8.450;2023-02-08T16:32:06;13.52;;;10.75;;
21814;SDS011;11069;48.988;8.450;2023-02-08T16:34:42;15.02;;;10.50;;
21814;SDS011;11069;48.988;8.450;2023-02-08T16:37:30;15.25;;;10.52;;
21814;SDS011;11069;48.988;8.450;2023-02-08T16:39:59;14.88;;;10.48;;
21814;SDS011;11069;48.988;8.450;2023-02-08T16:42:51;14.30;;;10.25;;
21814;SDS011;11069;48.988;8.450;2023-02-08T16:45:18;15.45;;;10.30;;
21814;SDS011;11069;48.988;8.450;2023-02-08T16:47:50;13.00;;;10.68;;
21814;SDS011;11069;48.988;8.450;2023-02-08T16:50:19;13.88;;;10.55;;
21814;SDS011;11069;48.988;8.450;2023-02-08T16:52:59;14.32;;;10.65;;
21814;SDS011;11069;48.988;8.450;2023-02-08T16:55:30;13.55;;;11.40;;
21814;SDS011;11069;48.988;8.450;2023-02-08T16:57:58;15.88;;;11.65;;
21814;SDS011;11069;48.988;8.450;2023-02-08T17:00:24;12.93;;;11.00;;
21814;SDS011;11069;48.988;8.450;2023-02-08T17:02:53;16.40;;;11.98;;
21814;SDS011;11069;48.988;8.450;2023-02-08T17:05:20;15.13;;;11.40;;
21814;SDS011;11069;48.988;8.450;2023-02-08T17:07:48;14.85;;;11.95;;
21814;SDS011;11069;48.988;8.450;2023-02-08T17:10:20;15.93;;;11.27;;
21814;SDS011;11069;48.988;8.450;2023-02-08T17:12:48;13.02;;;11.38;;
21814;SDS011;11069;48.988;8.450;2023-02-08T17:15:14;15.82;;;13.13;;
21814;SDS011;11069;48.988;8.450;2023-02-08T17:17:39;16.08;;;12.40;;
21814;SDS011;11069;48.988;8.450;2023-02-08T17:20:09;14.52;;;11.65;;
21814;SDS011;11069;48.988;8.450;2023-02-08T17:22:42;15.57;;;11.85;;
21814;SDS011;11069;48.988;8.450;2023-02-08T17:25:08;15.55;;;11.55;;
21814;SDS011;11069;48.988;8.450;2023-02-08T17:27:44;14.38;;;11.57;;
21814;SDS011;11069;48.988;8.450;2023-02-08T17:30:32;16.58;;;11.63;;
21814;SDS011;11069;48.988;8.450;2023-02-08T17:33:00;17.17;;;12.38;;
21814;SDS011;11069;48.988;8.450;2023-02-08T17:35:28;18.20;;;12.35;;